Portada
METAR-TAF:

METAR-TAF

Aeroports :

Colombo, Sri Lanka

latitud: 07-10N, longitud: 079-53E, altitud: 8 m

Observació

L'informe es va fer fa 57 minuts, a les 15:10 UTC
Vent 10 kt del Sud/Sud-Oest
Temperatura 28°C
Humitat 84%
Pressió 1011 hPa
Visibilitat 10 km o més
Escasses núvols a una alçada de 1700 ft

METAR: VCBI 191510Z 21010KT 9999 FEW017 28/25 Q1011 NOSIG

Hora: 21:37 (16:07 UTC)

Pronòstic

L'informe es va fer fa 5 hores i 7 minuts, a les 11:00 UTC
Pronòstic vàlid del 19 a les 12 UTC al 20 a les 18 UTC
Vent 10 kt del Sud-Oest
Visibilitat 10 km o més
Núvols disperses a una alçada de 1800 ft
Probabilitat 30% :
Temporalment
l' 19 a les 23 UTC al 20 a les 04 UTC
Visibilitat: 7000 m
Escasses núvols a una alçada de 1200 ft
Cel ennuvolat a una alçada de 1400 ft
Escasses núvols a una alçada de 2000 ft, Cumulonimbus.
xàfecs de pluja

TAF: VCBI 191100Z 1912/2018 23010KT 9999 SCT018 TX30/2008Z TN25/2000Z PROB30 TEMPO 1923/2004 7000 -SHRA FEW012 BKN014 FEW020CB

Observacions i pronòstics meteorològics de més de 4000 aeroports (METAR i TAF).

Les estacions disponibles són els punts grocs i vermells al mapa.

Posi el ratolí al punt desitjat per veure el nom de l'estació.

Feu clic per veure les observacions i els pronòstics meteorològics.

Per canviar el mapa: feu clic els botons verds amb una creu de color negre per apropar; al botó verd amb un guió per allunyar la imatge; o en les fletxes verdes per a mapes adjacents.


METAR-TAF: